Observations for ODIHAM RAF, United Kingdom (EGVO)

EGVO 231050Z 21009KT 7000 -DZ BKN006 BKN010 14/14 Q1017 YLO1 TEMPO BKN007 GRN   
EGVO 230950Z 20010KT 5000 -DZ FEW004 BKN005 BKN010 13/13 Q1017 YLO1 TEMPO 4000 SCT004 YLO1  
EGVO 230911Z 20011KT 5000 -DZ BKN006 BKN015 13/12 Q1017 YLO1 TEMPO 4000 YLO1
EGVO 230850Z 20010KT 4000 -DZ BKN008 BKN014 13/12 Q1017 GRN BECMG SCT005 YLO1   
EGVO 230750Z 21012KT 7000 -DZ SCT007 BKN037 12/12 Q1017 GRN TEMPO BKN005 YLO1   
EGVO 230716Z 21011KT 7000 -DZ SCT006 BKN030 12/11 Q1017 YLO1 TEMPO 4000 DZ YLO1
EGVO 230650Z 21011KT 9999 -DZ FEW007 BKN032 12/11 Q1017 BLU TEMPO 5000 -RADZ SCT005 YLO1
EGVO 230550Z 22010KT 9999 FEW015 SCT030 BKN050 11/10 Q1018 BLU  
EGVO 230450Z 23010KT CAVOK 11/09 Q1018 BLU  
EGVO 230350Z 24011KT 9999 SCT035 SCT060 BKN140 10/08 Q1018 BLU  
EGVO 230250Z AUTO 24010KT 9999 BKN033/// BKN220/// 10/08 Q1018  
EGVO 230150Z AUTO 25009KT 9999 FEW040/// SCT080/// BKN210/// 10/08 Q1018
EGVO 230050Z AUTO 25009KT 9999 BKN190/// 10/08 Q1018
EGVO 222350Z AUTO 25011KT 9999 BKN040/// 10/08 Q1018
EGVO 222250Z AUTO 25008KT 9999 BKN048/// 10/08 Q1019
EGVO 222150Z AUTO 25012KT 9999 OVC048/// 11/08 Q1018
EGVO 222050Z 27012KT CAVOK 11/08 Q1018 BLU  
EGVO 221950Z AUTO 27010KT 9999 BKN050/// 10/08 Q1018
EGVO 221850Z AUTO 28013KT 9999 OVC050/// 11/07 Q1017
EGVO 221750Z 28011KT 9999 BKN045 11/07 Q1017 BLU
EGVO 221650Z 27011KT 9999 FEW030 SCT070 11/08 Q1016 BLU 
EGVO 221550Z 27012KT 9999 FEW035 SCT050 11/07 Q1016 BLU 
EGVO 221450Z 27011KT 9999 FEW030 SCT040 12/07 Q1015 BLU 
EGVO 221350Z 28017KT 9999 FEW034 SCT045 BKN070 12/04 Q1015 BLU  
EGVO 221250Z 29016KT 9999 FEW042 12/03 Q1015 BLU
EGVO 221150Z 28018G29KT 9999 SCT040 12/02 Q1015 BLU 
EGVO 221050Z 28017KT 9999 SCT038 11/03 Q1014 BLU